Time,TemperatureF,DewpointF,PressureIn,WindDirection,WindDirectionDegrees,WindSpeedMPH,WindSpeedGustMPH,Humidity,HourlyPrecipIn,Conditions,Clouds,dailyrainin,SoftwareType,DateUTC
2013-03-31 00:02:00,52.0,42.0,30.05,NW,304,0.0,3.0,69,0.00,,,0.00,,2013-03-31 07:02:00,
2013-03-31 00:12:00,52.0,42.0,30.05,NW,304,0.0,3.0,69,0.00,,,0.00,,2013-03-31 07:12:00,
2013-03-31 00:22:00,51.0,42.0,30.05,WNW,288,1.0,3.0,70,0.00,,,0.00,,2013-03-31 07:22:00,
2013-03-31 00:32:00,51.0,42.0,30.04,NW,320,0.0,4.0,71,0.00,,,0.00,,2013-03-31 07:32:00,
2013-03-31 00:42:00,51.0,42.0,30.04,NW,320,0.0,4.0,71,0.00,,,0.00,,2013-03-31 07:42:00,
2013-03-31 00:52:00,50.0,41.0,30.04,West,279,0.0,4.0,72,0.00,,,0.00,,2013-03-31 07:52:00,
2013-03-31 01:02:00,50.0,42.0,30.04,West,264,0.0,4.0,74,0.00,,,0.00,,2013-03-31 08:02:00,
2013-03-31 01:12:00,50.0,42.0,30.04,West,264,0.0,4.0,74,0.00,,,0.00,,2013-03-31 08:12:00,
2013-03-31 01:22:00,50.0,43.0,30.04,ESE,107,0.0,5.0,76,0.00,,,0.00,,2013-03-31 08:22:00,
2013-03-31 01:32:00,49.0,42.0,30.04,NW,325,0.0,2.0,77,0.00,,,0.00,,2013-03-31 08:32:00,
2013-03-31 01:42:00,49.0,42.0,30.04,NW,325,0.0,2.0,77,0.00,,,0.00,,2013-03-31 08:42:00,
2013-03-31 01:52:00,49.0,42.0,30.04,WNW,300,0.0,4.0,78,0.00,,,0.00,,2013-03-31 08:52:00,
2013-03-31 02:01:00,49.0,43.0,30.04,West,263,0.0,2.0,79,0.00,,,0.00,,2013-03-31 09:01:00,
2013-03-31 02:12:00,49.0,43.0,30.04,West,263,0.0,2.0,79,0.00,,,0.00,,2013-03-31 09:12:00,
2013-03-31 02:21:00,48.0,42.0,30.04,East,93,0.0,0.0,80,0.00,,,0.00,,2013-03-31 09:21:00,
2013-03-31 02:32:00,48.0,43.0,30.04,ENE,75,0.0,0.0,82,0.00,,,0.00,,2013-03-31 09:32:00,
2013-03-31 02:42:00,48.0,43.0,30.04,ENE,75,0.0,0.0,82,0.00,,,0.00,,2013-03-31 09:42:00,
2013-03-31 02:52:00,47.0,42.0,30.03,WNW,284,0.0,0.0,83,0.00,,,0.00,,2013-03-31 09:52:00,
2013-03-31 03:03:00,47.0,42.0,30.03,SSE,156,0.0,0.0,83,0.00,,,0.00,,2013-03-31 10:03:00,
2013-03-31 03:12:00,47.0,42.0,30.03,SSE,156,0.0,0.0,83,0.00,,,0.00,,2013-03-31 10:12:00,
2013-03-31 03:23:00,47.0,42.0,30.03,East,93,0.0,0.0,84,0.00,,,0.00,,2013-03-31 10:23:00,
2013-03-31 03:32:00,46.0,42.0,30.03,WNW,296,0.0,0.0,86,0.00,,,0.00,,2013-03-31 10:32:00,
2013-03-31 03:42:00,46.0,42.0,30.03,WNW,296,0.0,0.0,86,0.00,,,0.00,,2013-03-31 10:42:00,
2013-03-31 03:52:00,46.0,42.0,30.03,WNW,294,0.0,0.0,86,0.00,,,0.00,,2013-03-31 10:52:00,
2013-03-31 04:02:00,44.0,41.0,30.03,East,92,0.0,0.0,90,0.00,,,0.00,,2013-03-31 11:02:00,
2013-03-31 04:12:00,44.0,41.0,30.03,East,92,0.0,0.0,90,0.00,,,0.00,,2013-03-31 11:12:00,
2013-03-31 04:22:00,45.0,42.0,30.02,East,82,0.0,0.0,89,0.00,,,0.00,,2013-03-31 11:22:00,
2013-03-31 04:32:00,45.0,42.0,30.02,ESE,118,0.0,1.0,88,0.00,,,0.00,,2013-03-31 11:32:00,
2013-03-31 04:42:00,45.0,42.0,30.02,ESE,118,0.0,1.0,88,0.00,,,0.00,,2013-03-31 11:42:00,
2013-03-31 04:52:00,45.0,42.0,30.02,ESE,118,0.0,1.0,88,0.00,,,0.00,,2013-03-31 11:52:00,
2013-03-31 05:02:00,45.0,42.0,30.02,ENE,62,0.0,0.0,88,0.00,,,0.00,,2013-03-31 12:02:00,
2013-03-31 05:12:00,45.0,42.0,30.02,ENE,62,0.0,0.0,88,0.00,,,0.00,,2013-03-31 12:12:00,
2013-03-31 05:22:00,44.0,41.0,30.02,East,84,0.0,0.0,88,0.00,,,0.00,,2013-03-31 12:22:00,
2013-03-31 05:32:00,44.0,41.0,30.02,SW,231,0.0,0.0,88,0.00,,,0.00,,2013-03-31 12:32:00,
2013-03-31 05:42:00,44.0,41.0,30.02,SW,231,0.0,0.0,88,0.00,,,0.00,,2013-03-31 12:42:00,
2013-03-31 05:52:00,44.0,41.0,30.02,ESE,121,0.0,0.0,89,0.00,,,0.00,,2013-03-31 12:52:00,
2013-03-31 06:02:00,43.0,40.0,30.02,East,101,0.0,0.0,89,0.00,,,0.00,,2013-03-31 13:02:00,
2013-03-31 06:12:00,43.0,40.0,30.02,East,101,0.0,0.0,89,0.00,,,0.00,,2013-03-31 13:12:00,
2013-03-31 06:22:00,41.0,39.0,30.02,East,101,0.0,0.0,91,0.00,,,0.00,,2013-03-31 13:22:00,
2013-03-31 06:32:00,40.0,38.0,30.02,East,101,0.0,0.0,94,0.00,,,0.00,,2013-03-31 13:32:00,
2013-03-31 06:42:00,40.0,38.0,30.02,East,101,0.0,0.0,94,0.00,,,0.00,,2013-03-31 13:42:00,
2013-03-31 06:52:00,39.0,37.0,30.02,East,101,0.0,0.0,94,0.00,,,0.00,,2013-03-31 13:52:00,
2013-03-31 07:02:00,38.0,37.0,30.02,East,101,0.0,0.0,95,0.00,,,0.00,,2013-03-31 14:02:00,
2013-03-31 07:11:00,38.0,37.0,30.02,East,101,0.0,0.0,95,0.00,,,0.00,,2013-03-31 14:11:00,
2013-03-31 07:22:00,38.0,37.0,30.02,East,101,0.0,0.0,96,0.00,,,0.00,,2013-03-31 14:22:00,
2013-03-31 07:32:00,38.0,37.0,30.02,East,101,0.0,0.0,96,0.00,,,0.00,,2013-03-31 14:32:00,
2013-03-31 07:42:00,38.0,37.0,30.02,East,101,0.0,0.0,96,0.00,,,0.00,,2013-03-31 14:42:00,
2013-03-31 07:51:00,38.0,37.0,30.03,East,101,0.0,0.0,96,0.00,,,0.00,,2013-03-31 14:51:00,
2013-03-31 08:02:00,37.0,36.0,30.03,East,101,0.0,0.0,97,0.00,,,0.00,,2013-03-31 15:02:00,
2013-03-31 08:12:00,37.0,36.0,30.03,East,101,0.0,0.0,97,0.00,,,0.00,,2013-03-31 15:12:00,
2013-03-31 08:22:00,37.0,36.0,30.03,East,101,0.0,0.0,97,0.00,,,0.00,,2013-03-31 15:22:00,
2013-03-31 08:33:00,40.0,39.0,30.03,South,169,0.0,0.0,98,0.00,,,0.00,,2013-03-31 15:33:00,
2013-03-31 08:43:00,40.0,39.0,30.03,South,169,0.0,0.0,98,0.00,,,0.00,,2013-03-31 15:43:00,
2013-03-31 08:53:00,42.0,41.0,30.03,ESE,105,0.0,0.0,98,0.00,,,0.00,,2013-03-31 15:53:00,
2013-03-31 09:02:00,45.0,43.0,30.03,SE,131,0.0,0.0,92,0.00,,,0.00,,2013-03-31 16:02:00,
2013-03-31 09:13:00,45.0,43.0,30.03,SE,131,0.0,0.0,92,0.00,,,0.00,,2013-03-31 16:13:00,
2013-03-31 09:22:00,47.0,43.0,30.03,East,94,0.0,0.0,87,0.00,,,0.00,,2013-03-31 16:22:00,
2013-03-31 09:32:00,48.0,43.0,30.03,NE,46,0.0,2.0,84,0.00,,,0.00,,2013-03-31 16:32:00,
2013-03-31 09:42:00,48.0,43.0,30.03,NE,46,0.0,2.0,84,0.00,,,0.00,,2013-03-31 16:42:00,
2013-03-31 09:52:00,49.0,44.0,30.02,WNW,300,0.0,1.0,82,0.00,,,0.00,,2013-03-31 16:52:00,
2013-03-31 10:02:00,50.0,44.0,30.03,ENE,58,0.0,3.0,81,0.00,,,0.00,,2013-03-31 17:02:00,
2013-03-31 10:12:00,50.0,44.0,30.03,ENE,58,0.0,3.0,81,0.00,,,0.00,,2013-03-31 17:12:00,
2013-03-31 10:22:00,51.0,44.0,30.02,WNW,288,0.0,3.0,78,0.00,,,0.00,,2013-03-31 17:22:00,
2013-03-31 10:32:00,53.0,45.0,30.02,NW,307,2.0,5.0,75,0.00,,,0.00,,2013-03-31 17:32:00,
2013-03-31 10:42:00,53.0,45.0,30.02,NW,307,2.0,5.0,75,0.00,,,0.00,,2013-03-31 17:42:00,
2013-03-31 10:51:00,54.0,46.0,30.02,SW,233,0.0,4.0,75,0.00,,,0.00,,2013-03-31 17:51:00,
2013-03-31 11:02:00,55.0,47.0,30.02,WNW,300,0.0,3.0,73,0.00,,,0.00,,2013-03-31 18:02:00,
2013-03-31 11:12:00,55.0,47.0,30.02,WNW,300,0.0,3.0,73,0.00,,,0.00,,2013-03-31 18:12:00,
2013-03-31 11:22:00,56.0,47.0,30.02,WNW,303,1.0,4.0,72,0.00,,,0.00,,2013-03-31 18:22:00,
2013-03-31 11:32:00,57.0,47.0,30.02,NW,311,1.0,5.0,69,0.00,,,0.00,,2013-03-31 18:32:00,
2013-03-31 11:42:00,57.0,47.0,30.02,NW,311,1.0,5.0,69,0.00,,,0.00,,2013-03-31 18:42:00,
2013-03-31 11:52:00,58.0,46.0,30.02,NE,42,0.0,5.0,65,0.00,,,0.00,,2013-03-31 18:52:00,
2013-03-31 12:02:00,60.0,47.0,30.02,WNW,292,1.0,6.0,61,0.00,,,0.00,,2013-03-31 19:02:00,
2013-03-31 12:12:00,60.0,47.0,30.02,WNW,292,1.0,6.0,61,0.00,,,0.00,,2013-03-31 19:12:00,
2013-03-31 12:21:00,61.0,47.0,30.02,SSE,165,0.0,3.0,59,0.00,,,0.00,,2013-03-31 19:21:00,
2013-03-31 12:32:00,63.0,47.0,30.01,NW,315,1.0,4.0,55,0.00,,,0.00,,2013-03-31 19:32:00,
2013-03-31 12:42:00,63.0,47.0,30.01,NW,315,1.0,4.0,55,0.00,,,0.00,,2013-03-31 19:42:00,
2013-03-31 12:53:00,63.0,47.0,30.01,WNW,293,0.0,1.0,55,0.00,,,0.00,,2013-03-31 19:53:00,
2013-03-31 13:02:00,65.0,46.0,30.00,ENE,70,0.0,4.0,51,0.00,,,0.00,,2013-03-31 20:02:00,
2013-03-31 13:12:00,65.0,46.0,30.00,ENE,70,0.0,4.0,51,0.00,,,0.00,,2013-03-31 20:12:00,
2013-03-31 13:22:00,66.0,47.0,29.99,SW,236,0.0,2.0,51,0.00,,,0.00,,2013-03-31 20:22:00,
2013-03-31 13:33:00,66.0,47.0,29.99,NW,304,0.0,4.0,50,0.00,,,0.00,,2013-03-31 20:33:00,
2013-03-31 13:42:00,66.0,47.0,29.99,NW,304,0.0,4.0,50,0.00,,,0.00,,2013-03-31 20:42:00,
2013-03-31 13:52:00,67.0,48.0,29.98,NW,305,0.0,5.0,51,0.00,,,0.00,,2013-03-31 20:52:00,
2013-03-31 14:02:00,68.0,48.0,29.97,WNW,285,0.0,7.0,48,0.00,,,0.00,,2013-03-31 21:02:00,
2013-03-31 14:12:00,68.0,48.0,29.97,WNW,285,0.0,7.0,48,0.00,,,0.00,,2013-03-31 21:12:00,
2013-03-31 14:22:00,69.0,48.0,29.97,NE,42,0.0,5.0,47,0.00,,,0.00,,2013-03-31 21:22:00,
2013-03-31 14:33:00,70.0,48.0,29.96,WNW,297,0.0,5.0,45,0.00,,,0.00,,2013-03-31 21:33:00,
2013-03-31 14:43:00,70.0,48.0,29.96,WNW,297,0.0,5.0,45,0.00,,,0.00,,2013-03-31 21:43:00,
2013-03-31 14:53:00,70.0,47.0,29.96,WNW,297,2.0,8.0,44,0.00,,,0.00,,2013-03-31 21:53:00,
2013-03-31 15:13:00,70.0,45.0,29.95,WSW,248,2.0,7.0,40,0.00,,,0.00,,2013-03-31 22:13:00,
2013-03-31 15:23:00,71.0,45.0,29.94,West,263,1.0,6.0,40,0.00,,,0.00,,2013-03-31 22:23:00,
2013-03-31 15:33:00,71.0,46.0,29.94,ENE,66,0.0,5.0,41,0.00,,,0.00,,2013-03-31 22:33:00,
2013-03-31 15:42:00,71.0,46.0,29.94,ENE,66,0.0,5.0,41,0.00,,,0.00,,2013-03-31 22:42:00,
2013-03-31 15:52:00,72.0,45.0,29.93,West,271,2.0,5.0,38,0.00,,,0.00,,2013-03-31 22:52:00,
2013-03-31 16:02:00,72.0,45.0,29.93,WNW,302,0.0,7.0,38,0.00,,,0.00,,2013-03-31 23:02:00,
2013-03-31 16:12:00,72.0,45.0,29.93,WNW,302,0.0,7.0,38,0.00,,,0.00,,2013-03-31 23:12:00,
2013-03-31 16:22:00,73.0,46.0,29.93,WNW,291,0.0,7.0,38,0.00,,,0.00,,2013-03-31 23:22:00,
2013-03-31 16:32:00,73.0,46.0,29.92,NNE,12,0.0,8.0,38,0.00,,,0.00,,2013-03-31 23:32:00,
2013-03-31 16:42:00,73.0,46.0,29.92,NNE,12,0.0,8.0,38,0.00,,,0.00,,2013-03-31 23:42:00,
2013-03-31 16:52:00,74.0,46.0,29.92,WSW,240,1.0,6.0,37,0.00,,,0.00,,2013-03-31 23:52:00,
2013-03-31 17:02:00,73.0,44.0,29.91,North,9,0.0,5.0,36,0.00,,,0.00,,2013-04-01 00:02:00,
2013-03-31 17:12:00,73.0,44.0,29.91,North,9,0.0,5.0,36,0.00,,,0.00,,2013-04-01 00:12:00,
2013-03-31 17:22:00,73.0,43.0,29.91,WNW,295,0.0,4.0,34,0.00,,,0.00,,2013-04-01 00:22:00,
2013-03-31 17:32:00,73.0,43.0,29.90,NNW,333,0.0,4.0,34,0.00,,,0.00,,2013-04-01 00:32:00,
2013-03-31 17:42:00,73.0,43.0,29.90,NNW,333,0.0,4.0,34,0.00,,,0.00,,2013-04-01 00:42:00,
2013-03-31 17:52:00,73.0,42.0,29.91,WNW,285,0.0,6.0,33,0.00,,,0.00,,2013-04-01 00:52:00,
2013-03-31 18:02:00,73.0,44.0,29.90,WNW,298,0.0,3.0,36,0.00,,,0.00,,2013-04-01 01:02:00,
2013-03-31 18:11:00,73.0,44.0,29.90,WNW,298,0.0,3.0,36,0.00,,,0.00,,2013-04-01 01:11:00,
2013-03-31 18:22:00,72.0,43.0,29.90,WNW,283,0.0,5.0,35,0.00,,,0.00,,2013-04-01 01:22:00,
2013-03-31 18:32:00,71.0,43.0,29.90,ESE,102,0.0,0.0,37,0.00,,,0.00,,2013-04-01 01:32:00,
2013-03-31 18:42:00,71.0,43.0,29.90,ESE,102,0.0,0.0,37,0.00,,,0.00,,2013-04-01 01:42:00,
2013-03-31 18:52:00,71.0,45.0,29.90,WNW,288,0.0,1.0,39,0.00,,,0.00,,2013-04-01 01:52:00,
2013-03-31 19:02:00,69.0,44.0,29.91,WNW,290,0.0,0.0,41,0.00,,,0.00,,2013-04-01 02:02:00,
2013-03-31 19:12:00,69.0,44.0,29.91,WNW,290,0.0,0.0,41,0.00,,,0.00,,2013-04-01 02:12:00,
2013-03-31 19:22:00,67.0,47.0,29.91,WNW,290,0.0,0.0,48,0.00,,,0.00,,2013-04-01 02:22:00,
2013-03-31 19:32:00,65.0,47.0,29.91,WNW,289,0.0,0.0,53,0.00,,,0.00,,2013-04-01 02:32:00,
2013-03-31 19:42:00,65.0,47.0,29.91,WNW,289,0.0,0.0,53,0.00,,,0.00,,2013-04-01 02:42:00,
2013-03-31 19:52:00,63.0,48.0,29.91,NNW,333,0.0,3.0,59,0.00,,,0.00,,2013-04-01 02:52:00,
2013-03-31 20:02:00,64.0,48.0,29.92,WNW,302,0.0,5.0,57,0.00,,,0.00,,2013-04-01 03:02:00,
2013-03-31 20:11:00,64.0,48.0,29.92,WNW,302,0.0,5.0,57,0.00,,,0.00,,2013-04-01 03:11:00,
2013-03-31 20:22:00,62.0,49.0,29.92,NW,309,0.0,0.0,62,0.00,,,0.00,,2013-04-01 03:22:00,
2013-03-31 20:33:00,60.0,48.0,29.93,WSW,248,0.0,1.0,64,0.00,,,0.00,,2013-04-01 03:33:00,
2013-03-31 20:43:00,60.0,48.0,29.93,WSW,248,0.0,1.0,64,0.00,,,0.00,,2013-04-01 03:43:00,
2013-03-31 20:52:00,59.0,48.0,29.93,West,277,0.0,0.0,66,0.00,,,0.00,,2013-04-01 03:52:00,
2013-03-31 21:02:00,58.0,47.0,29.94,NNW,335,0.0,1.0,68,0.00,,,0.00,,2013-04-01 04:02:00,
2013-03-31 21:12:00,58.0,47.0,29.94,NNW,335,0.0,1.0,68,0.00,,,0.00,,2013-04-01 04:12:00,
2013-03-31 21:23:00,56.0,46.0,29.95,ESE,112,0.0,0.0,70,0.00,,,0.00,,2013-04-01 04:23:00,
2013-03-31 21:32:00,56.0,47.0,29.95,West,281,0.0,1.0,71,0.00,,,0.00,,2013-04-01 04:32:00,
2013-03-31 21:42:00,56.0,47.0,29.95,West,281,0.0,1.0,71,0.00,,,0.00,,2013-04-01 04:42:00,
2013-03-31 21:52:00,56.0,47.0,29.95,West,281,0.0,1.0,71,0.00,,,0.00,,2013-04-01 04:52:00,
2013-03-31 22:02:00,53.0,47.0,29.97,WNW,296,0.0,0.0,80,0.00,,,0.00,,2013-04-01 05:02:00,
2013-03-31 22:12:00,53.0,47.0,29.97,WNW,296,0.0,0.0,80,0.00,,,0.00,,2013-04-01 05:12:00,
2013-03-31 22:22:00,51.0,46.0,29.98,NW,306,0.0,0.0,84,0.00,,,0.00,,2013-04-01 05:22:00,
2013-03-31 22:32:00,50.0,46.0,29.98,NW,306,0.0,0.0,87,0.00,,,0.00,,2013-04-01 05:32:00,
2013-03-31 22:42:00,50.0,46.0,29.98,NW,306,0.0,0.0,87,0.00,,,0.00,,2013-04-01 05:42:00,
2013-03-31 22:52:00,49.0,46.0,29.98,NW,306,0.0,0.0,90,0.00,,,0.00,,2013-04-01 05:52:00,
2013-03-31 23:02:00,48.0,45.0,29.98,NW,306,0.0,0.0,91,0.00,,,0.00,,2013-04-01 06:02:00,
2013-03-31 23:12:00,48.0,45.0,29.98,NW,306,0.0,0.0,91,0.00,,,0.00,,2013-04-01 06:12:00,
2013-03-31 23:22:00,47.0,45.0,29.99,NW,306,0.0,0.0,92,0.00,,,0.00,,2013-04-01 06:22:00,
2013-03-31 23:33:00,47.0,45.0,29.99,NW,306,0.0,0.0,93,0.00,,,0.00,,2013-04-01 06:33:00,
2013-03-31 23:42:00,47.0,45.0,29.99,NW,306,0.0,0.0,93,0.00,,,0.00,,2013-04-01 06:42:00,
2013-03-31 23:52:00,46.0,44.0,29.99,NW,306,0.0,0.0,94,0.00,,,0.00,,2013-04-01 06:52:00,